ΕΜΥ, Εθνική Μετεωρολογική Υπηρεσία - Δελτία Καιρού, Προγνώσεις

ΑΕΡΟΝΑΥΤΙΛΙΑ

GREEK AIRPORTS CODES

TAF LGST 151700Z 1518/1603 34008KT 9999 FEW020 SCT080 BECMG 1519/1521 13008KT=

EUROPEAN AIRPORTS CODES

LFPO 151800Z 03009KT 360V060 CAVOK 23/10 Q1018 NOSIG=